createdAt,value
2022-09-03T00:02:34.206Z,51.70
2022-09-03T00:05:11.242Z,51.70
2022-09-03T00:07:52.914Z,51.70
2022-09-03T00:10:30.789Z,51.70
2022-09-03T00:13:03.919Z,51.60
2022-09-03T00:15:38.862Z,51.80
2022-09-03T00:18:11.826Z,52.00
2022-09-03T00:20:46.024Z,52.10
2022-09-03T00:23:21.991Z,52.00
2022-09-03T00:25:58.818Z,52.10
2022-09-03T00:28:37.864Z,52.20
2022-09-03T00:31:18.201Z,52.30
2022-09-03T00:33:49.355Z,52.10
2022-09-03T00:36:24.721Z,52.20
2022-09-03T00:38:53.988Z,52.20
2022-09-03T00:41:34.322Z,52.30
2022-09-03T00:44:27.944Z,52.40
2022-09-03T00:47:09.443Z,52.30
2022-09-03T00:49:58.081Z,52.40
2022-09-03T00:52:45.768Z,52.40
2022-09-03T00:55:32.459Z,52.50
2022-09-03T00:58:30.719Z,52.80
2022-09-03T01:00:58.675Z,52.70
2022-09-03T01:03:41.462Z,52.60
2022-09-03T01:06:20.405Z,52.60
2022-09-03T01:09:27.419Z,52.80
2022-09-03T01:12:07.982Z,53.10
2022-09-03T01:14:58.570Z,52.80
2022-09-03T01:17:43.756Z,53.10
2022-09-03T01:20:49.506Z,52.60
2022-09-03T01:23:57.727Z,53.00
2022-09-03T01:26:43.466Z,53.20
2022-09-03T01:29:27.401Z,53.10
2022-09-03T01:32:07.950Z,53.10
2022-09-03T01:34:55.247Z,53.20
2022-09-03T01:37:36.446Z,53.30
2022-09-03T01:40:20.727Z,53.30
2022-09-03T01:43:04.438Z,53.40
2022-09-03T01:45:52.410Z,53.40
2022-09-03T01:48:39.581Z,53.50
2022-09-03T01:51:20.897Z,53.50
2022-09-03T01:54:37.818Z,53.40
2022-09-03T01:57:37.390Z,53.50
2022-09-03T02:00:13.162Z,53.70
2022-09-03T02:02:47.628Z,53.60
2022-09-03T02:05:24.081Z,53.20
2022-09-03T02:07:58.238Z,53.60
2022-09-03T02:10:32.303Z,53.50
2022-09-03T02:13:07.241Z,53.60
2022-09-03T02:15:39.132Z,53.70
2022-09-03T02:18:17.816Z,53.60
2022-09-03T02:20:47.897Z,53.70
2022-09-03T02:23:16.949Z,53.80
2022-09-03T02:25:51.265Z,53.80
2022-09-03T02:28:19.675Z,53.90
2022-09-03T02:30:48.249Z,54.50
2022-09-03T02:33:17.861Z,54.00
2022-09-03T02:35:46.356Z,53.90
2022-09-03T02:38:18.024Z,54.20
2022-09-03T02:40:49.258Z,54.10
2022-09-03T02:43:26.113Z,54.20
2022-09-03T02:46:01.937Z,54.30
2022-09-03T02:48:31.737Z,54.20
2022-09-03T02:50:59.914Z,54.40
2022-09-03T02:53:28.940Z,54.50
2022-09-03T02:56:00.860Z,54.70
2022-09-03T02:58:31.492Z,54.50
2022-09-03T03:01:00.416Z,54.80
2022-09-03T03:03:28.570Z,54.60
2022-09-03T03:06:02.676Z,54.80
2022-09-03T03:08:32.862Z,54.70
2022-09-03T03:11:01.014Z,54.80
2022-09-03T03:13:31.196Z,55.00
2022-09-03T03:16:00.707Z,55.20
2022-09-03T03:18:29.489Z,55.10
2022-09-03T03:21:04.430Z,55.40
2022-09-03T03:23:33.508Z,55.70
2022-09-03T03:26:03.341Z,55.40
2022-09-03T03:28:33.695Z,55.60
2022-09-03T03:31:07.901Z,55.50
2022-09-03T03:33:36.696Z,55.70
2022-09-03T03:36:11.938Z,55.50
2022-09-03T03:38:40.761Z,55.70
2022-09-03T03:41:10.492Z,55.80
2022-09-03T03:43:38.972Z,56.40
2022-09-03T03:46:07.529Z,55.80
2022-09-03T03:48:36.232Z,55.80
2022-09-03T03:51:07.390Z,55.90
2022-09-03T03:53:38.733Z,56.00
2022-09-03T03:56:10.809Z,55.90
2022-09-03T03:58:43.867Z,56.20
2022-09-03T04:01:15.429Z,55.90
2022-09-03T04:03:44.681Z,56.10
2022-09-03T04:06:15.637Z,56.10
2022-09-03T04:08:47.714Z,56.40
2022-09-03T04:11:20.453Z,56.30
2022-09-03T04:13:50.026Z,56.70
2022-09-03T04:16:20.806Z,57.20
2022-09-03T04:18:49.439Z,56.90
2022-09-03T04:21:21.050Z,57.20
2022-09-03T04:23:52.154Z,57.10
2022-09-03T04:26:22.961Z,57.10
2022-09-03T04:28:51.264Z,57.10
2022-09-03T04:31:21.729Z,57.10
2022-09-03T04:33:51.152Z,57.10
2022-09-03T04:36:21.706Z,57.40
2022-09-03T04:38:54.050Z,57.60
2022-09-03T04:41:25.707Z,57.40
2022-09-03T04:43:55.634Z,57.50
2022-09-03T04:46:27.701Z,57.30
2022-09-03T04:48:57.906Z,57.60
2022-09-03T04:51:29.900Z,57.70
2022-09-03T04:54:01.640Z,58.10
2022-09-03T04:56:32.273Z,57.90
2022-09-03T04:59:02.188Z,58.10
2022-09-03T05:01:33.169Z,58.10
2022-09-03T05:04:02.101Z,58.20
2022-09-03T05:06:32.430Z,58.20
2022-09-03T05:09:02.674Z,58.50
2022-09-03T05:11:31.468Z,58.40
2022-09-03T05:14:01.659Z,58.40
2022-09-03T05:16:31.220Z,58.50
2022-09-03T05:19:01.660Z,58.60
2022-09-03T05:21:30.822Z,58.40
2022-09-03T05:24:02.951Z,58.60
2022-09-03T05:26:34.818Z,58.50
2022-09-03T05:29:07.480Z,58.50
2022-09-03T05:31:39.106Z,58.80
2022-09-03T05:34:08.078Z,58.80
2022-09-03T05:36:38.677Z,59.00
2022-09-03T05:39:08.860Z,59.00
2022-09-03T05:41:36.886Z,59.20
2022-09-03T05:44:06.004Z,59.30
2022-09-03T05:46:36.872Z,59.50
2022-09-03T05:49:07.853Z,59.20
2022-09-03T05:51:37.399Z,59.60
2022-09-03T05:54:05.604Z,59.70
2022-09-03T05:56:36.174Z,59.70
2022-09-03T05:59:07.351Z,59.80
2022-09-03T06:01:50.916Z,59.70
2022-09-03T06:04:21.509Z,60.10
2022-09-03T06:06:50.348Z,60.10
2022-09-03T06:09:23.189Z,59.80
2022-09-03T06:11:53.874Z,60.30
2022-09-03T06:14:23.590Z,60.10
2022-09-03T06:16:53.156Z,60.60
2022-09-03T06:19:24.267Z,60.60
2022-09-03T06:21:53.893Z,60.70
2022-09-03T06:24:26.235Z,60.80
2022-09-03T06:26:57.690Z,61.10
2022-09-03T06:29:25.853Z,60.80
2022-09-03T06:31:53.847Z,61.20
2022-09-03T06:34:22.989Z,61.10
2022-09-03T06:36:51.581Z,61.60
2022-09-03T06:39:22.623Z,61.50
2022-09-03T06:41:51.752Z,61.60
2022-09-03T06:44:21.054Z,61.60
2022-09-03T06:46:49.027Z,61.50
2022-09-03T06:49:17.541Z,61.50
2022-09-03T06:51:45.566Z,61.80
2022-09-03T06:54:15.696Z,61.80
2022-09-03T06:56:43.650Z,61.70
2022-09-03T06:59:13.881Z,62.00
2022-09-03T07:01:46.165Z,62.00
2022-09-03T07:04:19.164Z,61.80
2022-09-03T07:06:48.614Z,61.90
2022-09-03T07:09:18.935Z,62.00
2022-09-03T07:11:48.751Z,62.20
2022-09-03T07:14:19.254Z,62.10
2022-09-03T07:16:52.659Z,62.00
2022-09-03T07:19:20.692Z,62.30
2022-09-03T07:21:50.555Z,62.10
2022-09-03T07:24:22.759Z,62.10
2022-09-03T07:26:51.057Z,62.10
2022-09-03T07:29:21.417Z,61.80
2022-09-03T07:31:53.207Z,62.00
2022-09-03T07:34:26.364Z,61.80
2022-09-03T07:36:54.994Z,62.00
2022-09-03T07:39:23.172Z,61.70
2022-09-03T07:41:51.202Z,61.50
2022-09-03T07:44:20.299Z,61.70
2022-09-03T07:46:51.957Z,61.60
2022-09-03T07:49:21.615Z,61.30
2022-09-03T07:51:52.882Z,61.10
2022-09-03T07:54:21.800Z,60.90
2022-09-03T07:56:50.335Z,60.50
2022-09-03T07:59:19.231Z,60.50
2022-09-03T08:01:47.168Z,60.50
2022-09-03T08:04:16.496Z,60.50
2022-09-03T08:06:44.505Z,60.30
2022-09-03T08:09:14.829Z,60.30
2022-09-03T08:11:44.803Z,60.40
2022-09-03T08:14:15.363Z,60.30
2022-09-03T08:16:47.212Z,60.10
2022-09-03T08:19:18.057Z,59.90
2022-09-03T08:21:46.025Z,59.80
2022-09-03T08:24:16.552Z,59.80
2022-09-03T08:26:50.607Z,59.50
2022-09-03T08:29:19.895Z,59.40
2022-09-03T08:31:48.021Z,59.10
2022-09-03T08:34:17.790Z,58.90
2022-09-03T08:36:47.497Z,58.80
2022-09-03T08:39:15.682Z,58.70
2022-09-03T08:42:08.257Z,58.50
2022-09-03T08:44:47.410Z,58.30
2022-09-03T08:47:22.963Z,58.30
2022-09-03T08:49:57.597Z,58.10
2022-09-03T08:52:33.382Z,57.90
2022-09-03T08:55:18.630Z,57.90
2022-09-03T08:57:50.686Z,57.90
2022-09-03T09:00:20.066Z,58.00
2022-09-03T09:03:05.704Z,57.80
2022-09-03T09:05:51.683Z,57.50
2022-09-03T09:08:28.776Z,57.40
2022-09-03T09:11:09.611Z,57.50
2022-09-03T09:13:50.655Z,57.30
2022-09-03T09:16:27.656Z,57.40
2022-09-03T09:19:14.576Z,57.10
2022-09-03T09:21:52.049Z,56.70
2022-09-03T09:24:26.291Z,56.80
2022-09-03T09:27:01.270Z,56.70
2022-09-03T09:29:34.041Z,56.80
2022-09-03T09:32:05.644Z,56.60
2022-09-03T09:34:37.164Z,56.60
2022-09-03T09:37:13.176Z,56.60
2022-09-03T09:39:42.986Z,56.40
2022-09-03T09:42:13.261Z,56.40
2022-09-03T09:44:44.288Z,56.30
2022-09-03T09:47:21.976Z,56.20
2022-09-03T09:49:55.587Z,55.90
2022-09-03T09:52:29.090Z,55.70
2022-09-03T09:55:09.965Z,55.70
2022-09-03T09:57:39.807Z,55.70
2022-09-03T10:00:15.382Z,55.80
2022-09-03T10:02:51.061Z,55.90
2022-09-03T10:05:25.594Z,55.50
2022-09-03T10:07:59.928Z,55.40
2022-09-03T10:10:32.979Z,55.30
2022-09-03T10:13:09.292Z,55.40
2022-09-03T10:15:47.442Z,55.20
2022-09-03T10:18:28.373Z,54.90
2022-09-03T10:21:06.254Z,54.90
2022-09-03T10:23:53.644Z,54.70
2022-09-03T10:26:29.025Z,54.40
2022-09-03T10:29:03.239Z,54.40
2022-09-03T10:32:12.929Z,54.60
2022-09-03T10:34:58.746Z,54.30
2022-09-03T10:37:39.491Z,54.00
2022-09-03T10:40:30.699Z,54.70
2022-09-03T10:43:21.245Z,54.00
2022-09-03T10:46:06.085Z,53.80
2022-09-03T10:49:00.723Z,53.90
2022-09-03T10:51:35.955Z,53.40
2022-09-03T10:54:39.749Z,53.50
2022-09-03T10:57:23.720Z,53.20
2022-09-03T11:00:08.474Z,53.10
2022-09-03T11:03:26.781Z,52.90
2022-09-03T11:06:04.062Z,52.50
2022-09-03T11:08:38.722Z,52.70
2022-09-03T11:11:15.457Z,53.10
2022-09-03T11:13:51.839Z,52.90
2022-09-03T11:16:27.015Z,53.00
2022-09-03T11:19:02.183Z,53.10
2022-09-03T11:21:33.620Z,53.10
2022-09-03T11:24:13.576Z,53.20
2022-09-03T11:26:45.902Z,53.20
2022-09-03T11:29:23.813Z,53.20
2022-09-03T11:32:02.881Z,53.00
2022-09-03T11:34:34.695Z,52.80
2022-09-03T11:37:20.021Z,52.60
2022-09-03T11:40:04.708Z,52.40
2022-09-03T11:42:38.246Z,52.00
2022-09-03T11:45:39.017Z,52.60
2022-09-03T11:48:39.779Z,52.20
2022-09-03T11:51:22.744Z,50.90
2022-09-03T11:54:26.294Z,51.20
2022-09-03T11:57:13.122Z,51.50
2022-09-03T11:59:43.860Z,51.60
2022-09-03T12:02:39.337Z,52.10
2022-09-03T12:05:23.521Z,51.40
2022-09-03T12:08:44.946Z,51.20
2022-09-03T12:11:39.447Z,50.80
2022-09-03T12:14:22.152Z,51.40
2022-09-03T12:17:13.053Z,51.40
2022-09-03T12:19:52.378Z,50.80
2022-09-03T12:22:23.546Z,51.00
2022-09-03T12:24:52.721Z,51.10
2022-09-03T12:27:24.734Z,51.20
2022-09-03T12:29:58.010Z,51.20
2022-09-03T12:32:27.715Z,50.90
2022-09-03T12:34:57.347Z,50.60
2022-09-03T12:40:22.377Z,50.90
2022-09-03T12:42:51.703Z,50.80
2022-09-03T12:45:23.776Z,50.90
2022-09-03T12:47:53.203Z,50.70
2022-09-03T12:50:25.481Z,50.80
2022-09-03T12:52:58.977Z,50.60
2022-09-03T12:55:36.722Z,50.80
2022-09-03T12:58:13.958Z,50.80
2022-09-03T13:00:49.195Z,50.20
2022-09-03T13:03:25.979Z,50.30
2022-09-03T13:06:00.472Z,50.80
2022-09-03T13:08:34.477Z,51.10
2022-09-03T13:11:06.272Z,51.20
2022-09-03T13:13:37.651Z,50.90
2022-09-03T13:16:39.552Z,51.20
2022-09-03T13:19:20.999Z,50.80
2022-09-03T13:22:05.176Z,51.20
2022-09-03T13:25:02.096Z,51.20
2022-09-03T13:27:39.453Z,50.90
2022-09-03T13:30:12.721Z,51.00
2022-09-03T13:32:57.902Z,51.20
2022-09-03T13:35:35.751Z,50.90
2022-09-03T13:38:23.905Z,51.10
2022-09-03T13:40:59.662Z,50.70
2022-09-03T13:43:35.907Z,50.80
2022-09-03T13:46:09.070Z,50.70
2022-09-03T13:49:02.353Z,50.80
2022-09-03T13:51:38.244Z,50.60
2022-09-03T13:54:36.265Z,50.50
2022-09-03T13:57:09.973Z,50.40
2022-09-03T13:59:55.047Z,50.40
2022-09-03T14:02:34.377Z,50.00
2022-09-03T14:05:13.058Z,50.30
2022-09-03T14:07:57.289Z,50.20
2022-09-03T14:10:47.151Z,49.70
2022-09-03T14:13:26.019Z,49.80
2022-09-03T14:16:05.861Z,50.20
2022-09-03T14:18:51.169Z,49.90
2022-09-03T14:21:25.772Z,49.70
2022-09-03T14:24:04.090Z,49.70
2022-09-03T14:26:39.835Z,49.70
2022-09-03T14:29:17.821Z,50.00
2022-09-03T14:32:19.388Z,50.10
2022-09-03T14:35:11.998Z,50.10
2022-09-03T14:38:12.111Z,50.20
2022-09-03T14:40:46.285Z,50.30
2022-09-03T14:43:52.855Z,50.40
2022-09-03T14:46:42.318Z,50.10
2022-09-03T14:49:35.569Z,50.40
2022-09-03T14:52:34.159Z,50.50
2022-09-03T14:55:29.353Z,50.90
2022-09-03T14:58:37.001Z,51.00
2022-09-03T15:01:15.084Z,51.10
2022-09-03T15:04:26.929Z,51.50
2022-09-03T15:07:25.193Z,51.20
2022-09-03T15:10:06.504Z,51.40
2022-09-03T15:12:41.491Z,51.60
2022-09-03T15:15:19.456Z,51.50
2022-09-03T15:18:10.560Z,51.60
2022-09-03T15:20:51.485Z,51.40
2022-09-03T15:23:39.882Z,51.40
2022-09-03T15:26:37.902Z,51.30
2022-09-03T15:29:21.463Z,51.20
2022-09-03T15:32:04.870Z,51.30
2022-09-03T15:35:00.911Z,51.30
2022-09-03T15:37:36.217Z,51.30
2022-09-03T15:40:11.356Z,51.40
2022-09-03T15:42:39.793Z,51.50
2022-09-03T15:45:31.710Z,51.60
2022-09-03T15:48:20.852Z,51.50
2022-09-03T15:50:59.441Z,51.60
2022-09-03T15:53:37.674Z,51.70
2022-09-03T15:56:32.578Z,51.90
2022-09-03T15:59:15.893Z,52.20
2022-09-03T16:01:55.207Z,52.30
2022-09-03T16:04:56.935Z,52.40
2022-09-03T16:07:38.621Z,52.40
2022-09-03T16:10:29.980Z,52.30
2022-09-03T16:13:07.791Z,52.30
2022-09-03T16:15:42.551Z,52.20
2022-09-03T16:18:31.415Z,52.20
2022-09-03T16:21:07.100Z,52.30
2022-09-03T16:23:47.371Z,52.20
2022-09-03T16:26:27.323Z,52.30
2022-09-03T16:29:00.794Z,52.40
2022-09-03T16:31:50.682Z,52.50
2022-09-03T16:34:32.671Z,52.50
2022-09-03T16:37:16.347Z,52.40
2022-09-03T16:39:58.228Z,52.40
2022-09-03T16:42:35.482Z,52.30
2022-09-03T16:45:18.499Z,52.40
2022-09-03T16:48:09.872Z,52.50
2022-09-03T16:50:57.965Z,52.50
2022-09-03T16:53:45.028Z,52.60
2022-09-03T16:56:34.187Z,52.60
2022-09-03T16:59:19.646Z,52.60
2022-09-03T17:02:23.663Z,52.70
2022-09-03T17:05:16.001Z,52.80
2022-09-03T17:08:04.938Z,52.80
2022-09-03T17:10:46.931Z,52.90
2022-09-03T17:13:58.147Z,52.80
2022-09-03T17:16:43.683Z,52.80
2022-09-03T17:19:30.228Z,52.70
2022-09-03T17:22:20.731Z,52.80
2022-09-03T17:25:00.308Z,52.70
2022-09-03T17:28:21.450Z,52.60
2022-09-03T17:30:59.364Z,52.70
2022-09-03T17:33:47.720Z,52.60
2022-09-03T17:36:19.647Z,52.50
2022-09-03T17:39:44.081Z,52.50
2022-09-03T17:42:24.704Z,52.50
2022-09-03T17:45:14.609Z,52.40
2022-09-03T17:48:20.150Z,52.40
2022-09-03T17:50:57.045Z,52.30
2022-09-03T17:53:35.093Z,52.30
2022-09-03T17:56:08.553Z,52.20
2022-09-03T17:58:42.345Z,52.30
2022-09-03T18:01:21.363Z,52.30
2022-09-03T18:03:55.619Z,52.40
2022-09-03T18:06:36.560Z,52.40
2022-09-03T18:09:19.431Z,52.50
2022-09-03T18:11:51.717Z,52.50
2022-09-03T18:14:29.665Z,52.60
2022-09-03T18:17:14.309Z,52.50
2022-09-03T18:20:08.496Z,52.70
2022-09-03T18:23:08.651Z,52.70
2022-09-03T18:25:58.943Z,52.70
2022-09-03T18:28:57.273Z,52.70
2022-09-03T18:31:43.010Z,52.80
2022-09-03T18:34:30.218Z,52.80
2022-09-03T18:37:18.490Z,52.80
2022-09-03T18:40:05.301Z,52.90
2022-09-03T18:43:11.522Z,52.90
2022-09-03T18:49:21.378Z,53.50
2022-09-03T18:52:19.315Z,53.10
2022-09-03T18:55:23.053Z,53.20
2022-09-03T18:58:29.077Z,53.20
2022-09-03T19:01:26.762Z,53.20
2022-09-03T19:04:27.368Z,53.30
2022-09-03T19:07:26.899Z,53.30
2022-09-03T19:10:21.737Z,53.40
2022-09-03T19:13:31.863Z,53.40
2022-09-03T19:16:28.155Z,53.50
2022-09-03T19:19:45.936Z,53.40
2022-09-03T19:22:50.042Z,53.60
2022-09-03T19:25:36.544Z,53.50
2022-09-03T19:28:32.407Z,53.50
2022-09-03T19:32:01.689Z,53.70
2022-09-03T19:35:15.509Z,53.90
2022-09-03T19:38:19.207Z,53.80
2022-09-03T19:41:20.133Z,53.80
2022-09-03T19:44:26.604Z,53.80
2022-09-03T19:47:18.586Z,53.90
2022-09-03T19:50:22.031Z,53.80
2022-09-03T19:53:14.777Z,54.30
2022-09-03T19:56:07.739Z,54.10
2022-09-03T19:58:59.499Z,54.10
2022-09-03T20:01:52.612Z,54.10
2022-09-03T20:04:46.366Z,54.10
2022-09-03T20:07:32.014Z,54.10
2022-09-03T20:10:23.485Z,54.20
2022-09-03T20:13:01.451Z,54.30
2022-09-03T20:15:46.348Z,54.40
2022-09-03T20:18:28.652Z,54.40
2022-09-03T20:21:11.340Z,54.50
2022-09-03T20:23:54.206Z,54.50
2022-09-03T20:26:45.800Z,54.60
2022-09-03T20:29:46.763Z,54.80
2022-09-03T20:32:33.323Z,54.90
2022-09-03T20:35:11.054Z,54.80
2022-09-03T20:37:45.445Z,54.80
2022-09-03T20:40:26.973Z,55.00
2022-09-03T20:43:25.938Z,55.00
2022-09-03T20:46:09.158Z,55.10
2022-09-03T20:48:47.566Z,55.10
2022-09-03T20:51:22.794Z,55.20
2022-09-03T20:54:11.038Z,55.30
2022-09-03T20:56:59.646Z,55.40
2022-09-03T20:59:48.179Z,55.50
2022-09-03T21:02:34.878Z,55.40
2022-09-03T21:05:14.966Z,55.50
2022-09-03T21:07:57.851Z,55.50
2022-09-03T21:10:34.918Z,55.60
2022-09-03T21:13:15.930Z,55.60
2022-09-03T21:15:58.846Z,55.70
2022-09-03T21:18:43.111Z,55.80
2022-09-03T21:21:26.034Z,55.90
2022-09-03T21:24:04.870Z,55.90
2022-09-03T21:26:39.926Z,55.90
2022-09-03T21:29:21.449Z,56.00
2022-09-03T21:31:59.276Z,56.60
2022-09-03T21:34:32.927Z,56.20
2022-09-03T21:37:06.677Z,56.30
2022-09-03T21:39:43.797Z,56.50
2022-09-03T21:42:21.234Z,56.60
2022-09-03T21:44:56.681Z,56.90
2022-09-03T21:47:28.998Z,57.00
2022-09-03T21:50:13.121Z,57.30
2022-09-03T21:52:53.648Z,57.30
2022-09-03T21:55:28.298Z,57.60
2022-09-03T21:58:22.271Z,57.60
2022-09-03T22:00:57.580Z,57.80
2022-09-03T22:03:26.915Z,57.80
2022-09-03T22:06:02.179Z,57.90
2022-09-03T22:08:38.075Z,58.10
2022-09-03T22:11:17.502Z,58.20
2022-09-03T22:13:57.361Z,58.30
2022-09-03T22:16:33.917Z,58.40
2022-09-03T22:19:03.382Z,58.30
2022-09-03T22:21:37.883Z,58.30
2022-09-03T22:24:23.080Z,58.20
2022-09-03T22:26:58.131Z,58.10
2022-09-03T22:29:41.497Z,58.00
2022-09-03T22:32:35.521Z,58.00
2022-09-03T22:35:46.422Z,58.00
2022-09-03T22:38:53.282Z,58.30
2022-09-03T22:41:50.951Z,58.40
2022-09-03T22:44:43.424Z,58.00
2022-09-03T22:47:22.451Z,58.00
2022-09-03T22:49:59.517Z,58.00
2022-09-03T22:52:38.561Z,58.00
2022-09-03T22:55:20.859Z,58.10
2022-09-03T22:57:59.603Z,58.30
2022-09-03T23:00:29.317Z,58.30
2022-09-03T23:03:08.684Z,58.30
2022-09-03T23:05:46.273Z,58.40
2022-09-03T23:08:26.026Z,58.40
2022-09-03T23:11:03.050Z,58.50
2022-09-03T23:13:41.856Z,58.40
2022-09-03T23:16:19.217Z,58.50
2022-09-03T23:18:51.307Z,58.70
2022-09-03T23:21:29.875Z,58.60
2022-09-03T23:24:09.193Z,58.70
2022-09-03T23:26:42.892Z,58.80
2022-09-03T23:29:20.962Z,58.90
2022-09-03T23:31:50.407Z,59.00
2022-09-03T23:34:18.411Z,59.00
2022-09-03T23:37:32.590Z,59.10
2022-09-03T23:40:12.755Z,59.10
2022-09-03T23:43:04.412Z,59.30
2022-09-03T23:45:42.906Z,59.30
2022-09-03T23:48:23.911Z,59.30
2022-09-03T23:51:07.240Z,59.40
2022-09-03T23:53:51.792Z,59.50
2022-09-03T23:56:53.138Z,59.50
2022-09-03T23:59:33.642Z,59.90
